sensor_id;sensor_type;location;lat;lon;timestamp;pressure;altitude;pressure_sealevel;temperature;humidity
30618;BME280;17384;51.214;9.202;2023-07-13T00:01:45;98560.03;;;15.31;80.23
30618;BME280;17384;51.214;9.202;2023-07-13T00:04:16;98556.41;;;15.26;79.35
30618;BME280;17384;51.214;9.202;2023-07-13T00:06:43;98565.66;;;15.24;78.26
30618;BME280;17384;51.214;9.202;2023-07-13T00:09:11;98574.94;;;15.23;78.28
30618;BME280;17384;51.214;9.202;2023-07-13T00:11:38;98593.66;;;15.32;77.63
30618;BME280;17384;51.214;9.202;2023-07-13T00:14:03;98587.78;;;15.23;78.03
30618;BME280;17384;51.214;9.202;2023-07-13T00:16:29;98582.56;;;15.21;78.15
30618;BME280;17384;51.214;9.202;2023-07-13T00:18:54;98585.56;;;15.20;78.18
30618;BME280;17384;51.214;9.202;2023-07-13T00:21:19;98591.00;;;15.20;77.93
30618;BME280;17384;51.214;9.202;2023-07-13T00:23:45;98589.69;;;15.22;78.00
30618;BME280;17384;51.214;9.202;2023-07-13T00:26:11;98581.00;;;15.26;77.65
30618;BME280;17384;51.214;9.202;2023-07-13T00:28:38;98580.75;;;15.27;77.87
30618;BME280;17384;51.214;9.202;2023-07-13T00:31:04;98580.41;;;15.23;78.44
30618;BME280;17384;51.214;9.202;2023-07-13T00:33:29;98582.00;;;15.19;79.18
30618;BME280;17384;51.214;9.202;2023-07-13T00:35:55;98581.91;;;15.31;79.08
30618;BME280;17384;51.214;9.202;2023-07-13T00:38:21;98578.59;;;15.12;79.63
30618;BME280;17384;51.214;9.202;2023-07-13T00:40:47;98577.09;;;15.21;80.83
30618;BME280;17384;51.214;9.202;2023-07-13T00:43:18;98564.13;;;15.34;79.69
30618;BME280;17384;51.214;9.202;2023-07-13T00:48:12;98578.00;;;15.27;79.40
30618;BME280;17384;51.214;9.202;2023-07-13T00:50:40;98567.91;;;15.28;80.15
30618;BME280;17384;51.214;9.202;2023-07-13T00:53:07;98575.59;;;15.31;79.49
30618;BME280;17384;51.214;9.202;2023-07-13T00:55:33;98571.84;;;15.37;78.79
30618;BME280;17384;51.214;9.202;2023-07-13T00:57:59;98565.63;;;15.41;77.45
30618;BME280;17384;51.214;9.202;2023-07-13T01:00:25;98580.94;;;15.42;77.74
30618;BME280;17384;51.214;9.202;2023-07-13T01:02:51;98572.50;;;15.44;77.40
30618;BME280;17384;51.214;9.202;2023-07-13T01:05:19;98580.78;;;15.49;77.16
30618;BME280;17384;51.214;9.202;2023-07-13T01:07:45;98574.56;;;15.53;78.29
30618;BME280;17384;51.214;9.202;2023-07-13T01:10:12;98572.66;;;15.54;78.97
30618;BME280;17384;51.214;9.202;2023-07-13T01:12:38;98574.81;;;15.52;79.69
30618;BME280;17384;51.214;9.202;2023-07-13T01:15:04;98578.03;;;15.49;80.20
30618;BME280;17384;51.214;9.202;2023-07-13T01:17:31;98577.38;;;15.42;80.76
30618;BME280;17384;51.214;9.202;2023-07-13T01:19:58;98585.66;;;15.47;81.72
30618;BME280;17384;51.214;9.202;2023-07-13T01:22:23;98580.88;;;15.37;82.00
30618;BME280;17384;51.214;9.202;2023-07-13T01:24:52;98578.97;;;15.38;82.27
30618;BME280;17384;51.214;9.202;2023-07-13T01:27:24;98585.50;;;15.37;82.35
30618;BME280;17384;51.214;9.202;2023-07-13T01:29:51;98578.88;;;15.33;82.60
30618;BME280;17384;51.214;9.202;2023-07-13T01:32:22;98587.91;;;15.33;82.55
30618;BME280;17384;51.214;9.202;2023-07-13T01:34:50;98588.50;;;15.35;82.98
30618;BME280;17384;51.214;9.202;2023-07-13T01:37:16;98588.50;;;15.35;82.38
30618;BME280;17384;51.214;9.202;2023-07-13T01:39:42;98593.13;;;15.35;82.66
30618;BME280;17384;51.214;9.202;2023-07-13T01:42:07;98579.91;;;15.27;82.46
30618;BME280;17384;51.214;9.202;2023-07-13T01:44:33;98581.91;;;15.14;83.18
30618;BME280;17384;51.214;9.202;2023-07-13T01:46:59;98585.81;;;15.18;83.40
30618;BME280;17384;51.214;9.202;2023-07-13T01:49:24;98578.69;;;15.17;83.66
30618;BME280;17384;51.214;9.202;2023-07-13T01:51:50;98576.78;;;15.18;83.55
30618;BME280;17384;51.214;9.202;2023-07-13T01:54:15;98582.31;;;15.23;83.50
30618;BME280;17384;51.214;9.202;2023-07-13T01:56:41;98583.81;;;15.31;82.55
30618;BME280;17384;51.214;9.202;2023-07-13T01:59:08;98587.75;;;15.40;81.50
30618;BME280;17384;51.214;9.202;2023-07-13T02:01:34;98589.66;;;15.39;81.43
30618;BME280;17384;51.214;9.202;2023-07-13T02:03:59;98584.81;;;15.24;81.98
30618;BME280;17384;51.214;9.202;2023-07-13T02:06:25;98589.69;;;15.22;82.37
30618;BME280;17384;51.214;9.202;2023-07-13T02:08:50;98585.88;;;15.23;82.97
30618;BME280;17384;51.214;9.202;2023-07-13T02:11:16;98580.25;;;15.13;83.26
30618;BME280;17384;51.214;9.202;2023-07-13T02:13:42;98578.75;;;15.06;83.63
30618;BME280;17384;51.214;9.202;2023-07-13T02:16:08;98584.22;;;15.06;83.89
30618;BME280;17384;51.214;9.202;2023-07-13T02:18:33;98582.53;;;15.00;84.23
30618;BME280;17384;51.214;9.202;2023-07-13T02:20:59;98588.22;;;14.98;84.84
30618;BME280;17384;51.214;9.202;2023-07-13T02:23:24;98584.97;;;14.84;84.68
30618;BME280;17384;51.214;9.202;2023-07-13T02:25:55;98575.97;;;14.67;85.27
30618;BME280;17384;51.214;9.202;2023-07-13T02:28:20;98592.59;;;14.66;85.68
30618;BME280;17384;51.214;9.202;2023-07-13T02:30:46;98587.53;;;14.57;86.00
30618;BME280;17384;51.214;9.202;2023-07-13T02:33:11;98586.09;;;14.38;86.58
30618;BME280;17384;51.214;9.202;2023-07-13T02:35:37;98591.81;;;14.25;86.83
30618;BME280;17384;51.214;9.202;2023-07-13T02:38:02;98581.59;;;14.04;86.69
30618;BME280;17384;51.214;9.202;2023-07-13T02:40:28;98570.34;;;14.00;86.08
30618;BME280;17384;51.214;9.202;2023-07-13T02:42:53;98571.38;;;13.82;86.08
30618;BME280;17384;51.214;9.202;2023-07-13T02:45:19;98571.00;;;13.91;85.20
30618;BME280;17384;51.214;9.202;2023-07-13T02:47:44;98569.34;;;13.89;83.94
30618;BME280;17384;51.214;9.202;2023-07-13T02:50:10;98571.06;;;13.96;82.80
30618;BME280;17384;51.214;9.202;2023-07-13T02:52:35;98570.44;;;14.05;81.53
30618;BME280;17384;51.214;9.202;2023-07-13T02:55:01;98576.94;;;14.16;79.95
30618;BME280;17384;51.214;9.202;2023-07-13T02:57:26;98567.94;;;14.32;78.68
30618;BME280;17384;51.214;9.202;2023-07-13T02:59:53;98579.56;;;14.39;77.91
30618;BME280;17384;51.214;9.202;2023-07-13T03:02:19;98570.16;;;14.47;77.39
30618;BME280;17384;51.214;9.202;2023-07-13T03:04:45;98582.56;;;14.54;76.51
30618;BME280;17384;51.214;9.202;2023-07-13T03:07:11;98564.63;;;14.59;75.50
30618;BME280;17384;51.214;9.202;2023-07-13T03:09:36;98561.56;;;14.55;75.13
30618;BME280;17384;51.214;9.202;2023-07-13T03:12:02;98574.13;;;14.56;75.03
30618;BME280;17384;51.214;9.202;2023-07-13T03:14:28;98571.81;;;14.48;74.85
30618;BME280;17384;51.214;9.202;2023-07-13T03:16:53;98577.09;;;14.54;74.02
30618;BME280;17384;51.214;9.202;2023-07-13T03:19:19;98584.81;;;14.57;73.03
30618;BME280;17384;51.214;9.202;2023-07-13T03:21:45;98587.06;;;14.61;72.90
30618;BME280;17384;51.214;9.202;2023-07-13T03:24:10;98588.84;;;14.55;72.78
30618;BME280;17384;51.214;9.202;2023-07-13T03:26:36;98581.75;;;14.54;72.69
30618;BME280;17384;51.214;9.202;2023-07-13T03:29:02;98589.69;;;14.55;72.43
30618;BME280;17384;51.214;9.202;2023-07-13T03:31:29;98593.31;;;14.44;72.15
30618;BME280;17384;51.214;9.202;2023-07-13T03:33:56;98587.88;;;14.44;72.16
30618;BME280;17384;51.214;9.202;2023-07-13T03:36:25;98589.28;;;14.47;72.03
30618;BME280;17384;51.214;9.202;2023-07-13T03:38:53;98600.44;;;14.45;71.94
30618;BME280;17384;51.214;9.202;2023-07-13T03:41:20;98605.66;;;14.47;71.67
30618;BME280;17384;51.214;9.202;2023-07-13T03:43:46;98600.19;;;14.47;71.56
30618;BME280;17384;51.214;9.202;2023-07-13T03:46:13;98603.28;;;14.39;71.58
30618;BME280;17384;51.214;9.202;2023-07-13T03:48:39;98604.84;;;14.35;72.12
30618;BME280;17384;51.214;9.202;2023-07-13T03:51:06;98606.50;;;14.36;72.19
30618;BME280;17384;51.214;9.202;2023-07-13T03:53:31;98608.63;;;14.34;72.38
30618;BME280;17384;51.214;9.202;2023-07-13T03:55:57;98598.56;;;14.34;72.94
30618;BME280;17384;51.214;9.202;2023-07-13T04:00:53;98623.00;;;14.29;73.26
30618;BME280;17384;51.214;9.202;2023-07-13T04:03:19;98622.03;;;14.07;74.11
30618;BME280;17384;51.214;9.202;2023-07-13T04:05:45;98621.03;;;13.84;75.91
30618;BME280;17384;51.214;9.202;2023-07-13T04:08:11;98627.56;;;13.83;75.65
30618;BME280;17384;51.214;9.202;2023-07-13T04:10:37;98619.03;;;13.80;76.32
30618;BME280;17384;51.214;9.202;2023-07-13T04:13:04;98620.09;;;13.79;76.76
30618;BME280;17384;51.214;9.202;2023-07-13T04:15:30;98631.25;;;13.77;76.98
30618;BME280;17384;51.214;9.202;2023-07-13T04:17:56;98631.47;;;13.76;77.34
30618;BME280;17384;51.214;9.202;2023-07-13T04:20:22;98638.84;;;13.75;77.71
30618;BME280;17384;51.214;9.202;2023-07-13T04:22:49;98634.31;;;13.81;77.19
30618;BME280;17384;51.214;9.202;2023-07-13T04:25:14;98640.72;;;13.86;76.58
30618;BME280;17384;51.214;9.202;2023-07-13T04:27:40;98642.38;;;13.87;76.48
30618;BME280;17384;51.214;9.202;2023-07-13T04:30:06;98643.94;;;13.83;76.97
30618;BME280;17384;51.214;9.202;2023-07-13T04:32:32;98645.81;;;13.83;77.73
30618;BME280;17384;51.214;9.202;2023-07-13T04:34:58;98644.75;;;13.84;77.46
30618;BME280;17384;51.214;9.202;2023-07-13T04:37:25;98639.75;;;13.93;76.98
30618;BME280;17384;51.214;9.202;2023-07-13T04:39:51;98644.94;;;14.06;76.81
30618;BME280;17384;51.214;9.202;2023-07-13T04:42:17;98641.34;;;14.17;76.59
30618;BME280;17384;51.214;9.202;2023-07-13T04:44:48;98647.34;;;14.31;75.83
30618;BME280;17384;51.214;9.202;2023-07-13T04:47:14;98658.59;;;14.46;75.24
30618;BME280;17384;51.214;9.202;2023-07-13T04:49:40;98656.38;;;14.60;74.86
30618;BME280;17384;51.214;9.202;2023-07-13T04:52:06;98657.25;;;14.77;74.24
30618;BME280;17384;51.214;9.202;2023-07-13T04:54:33;98660.81;;;14.94;72.84
30618;BME280;17384;51.214;9.202;2023-07-13T04:56:59;98659.41;;;15.08;71.97
30618;BME280;17384;51.214;9.202;2023-07-13T04:59:25;98667.72;;;15.30;71.42
30618;BME280;17384;51.214;9.202;2023-07-13T05:01:51;98673.72;;;15.49;70.45
30618;BME280;17384;51.214;9.202;2023-07-13T05:04:17;98657.66;;;15.69;70.54
30618;BME280;17384;51.214;9.202;2023-07-13T05:06:42;98652.41;;;15.84;70.30
30618;BME280;17384;51.214;9.202;2023-07-13T05:09:08;98658.97;;;16.05;70.18
30618;BME280;17384;51.214;9.202;2023-07-13T05:11:34;98666.34;;;16.27;69.68
30618;BME280;17384;51.214;9.202;2023-07-13T05:13:59;98662.38;;;16.39;69.03
30618;BME280;17384;51.214;9.202;2023-07-13T05:16:27;98665.66;;;16.63;69.16
30618;BME280;17384;51.214;9.202;2023-07-13T05:18:52;98658.13;;;16.75;69.06
30618;BME280;17384;51.214;9.202;2023-07-13T05:21:18;98669.50;;;16.89;68.21
30618;BME280;17384;51.214;9.202;2023-07-13T05:23:44;98656.88;;;16.88;65.78
30618;BME280;17384;51.214;9.202;2023-07-13T05:26:10;98664.44;;;16.76;65.95
30618;BME280;17384;51.214;9.202;2023-07-13T05:28:36;98670.19;;;17.06;67.50
30618;BME280;17384;51.214;9.202;2023-07-13T05:31:02;98661.00;;;17.17;65.57
30618;BME280;17384;51.214;9.202;2023-07-13T05:33:28;98659.75;;;17.35;63.75
30618;BME280;17384;51.214;9.202;2023-07-13T05:35:53;98669.31;;;17.65;63.85
30618;BME280;17384;51.214;9.202;2023-07-13T05:38:19;98671.34;;;17.84;60.70
30618;BME280;17384;51.214;9.202;2023-07-13T05:40:45;98663.09;;;17.84;61.45
30618;BME280;17384;51.214;9.202;2023-07-13T05:43:11;98666.16;;;17.46;59.96
30618;BME280;17384;51.214;9.202;2023-07-13T05:45:37;98655.94;;;17.73;59.47
30618;BME280;17384;51.214;9.202;2023-07-13T05:48:03;98654.31;;;17.82;58.23
30618;BME280;17384;51.214;9.202;2023-07-13T05:50:28;98652.78;;;18.07;58.31
30618;BME280;17384;51.214;9.202;2023-07-13T05:52:54;98657.56;;;18.26;57.41
30618;BME280;17384;51.214;9.202;2023-07-13T05:55:19;98655.22;;;18.66;56.99
30618;BME280;17384;51.214;9.202;2023-07-13T05:57:45;98666.53;;;18.79;55.24
30618;BME280;17384;51.214;9.202;2023-07-13T06:00:11;98668.34;;;18.48;54.29
30618;BME280;17384;51.214;9.202;2023-07-13T06:02:37;98678.16;;;18.24;58.13
30618;BME280;17384;51.214;9.202;2023-07-13T06:05:05;98675.44;;;18.39;56.84
30618;BME280;17384;51.214;9.202;2023-07-13T06:07:32;98672.75;;;18.49;55.44
30618;BME280;17384;51.214;9.202;2023-07-13T06:09:58;98681.88;;;17.98;56.30
30618;BME280;17384;51.214;9.202;2023-07-13T06:12:25;98677.00;;;18.15;58.08
30618;BME280;17384;51.214;9.202;2023-07-13T06:14:50;98682.06;;;18.48;56.86
30618;BME280;17384;51.214;9.202;2023-07-13T06:17:16;98680.00;;;18.91;54.75
30618;BME280;17384;51.214;9.202;2023-07-13T06:19:44;98688.00;;;19.23;55.40
30618;BME280;17384;51.214;9.202;2023-07-13T06:22:15;98695.94;;;18.94;54.03
30618;BME280;17384;51.214;9.202;2023-07-13T06:24:41;98692.06;;;18.70;55.39
30618;BME280;17384;51.214;9.202;2023-07-13T06:27:06;98701.50;;;19.24;55.20
30618;BME280;17384;51.214;9.202;2023-07-13T06:29:32;98691.59;;;19.28;52.42
30618;BME280;17384;51.214;9.202;2023-07-13T06:31:58;98707.28;;;19.33;53.14
30618;BME280;17384;51.214;9.202;2023-07-13T06:34:23;98707.00;;;19.09;53.86
30618;BME280;17384;51.214;9.202;2023-07-13T06:36:49;98709.75;;;19.45;52.76
30618;BME280;17384;51.214;9.202;2023-07-13T06:39:14;98708.66;;;19.76;51.93
30618;BME280;17384;51.214;9.202;2023-07-13T06:41:40;98698.41;;;20.07;51.25
30618;BME280;17384;51.214;9.202;2023-07-13T06:44:05;98699.63;;;20.55;50.25
30618;BME280;17384;51.214;9.202;2023-07-13T06:46:32;98698.28;;;21.02;50.01
30618;BME280;17384;51.214;9.202;2023-07-13T06:48:57;98703.78;;;21.02;50.27
30618;BME280;17384;51.214;9.202;2023-07-13T06:51:23;98691.91;;;21.41;48.34
30618;BME280;17384;51.214;9.202;2023-07-13T06:53:48;98692.97;;;20.61;49.65
30618;BME280;17384;51.214;9.202;2023-07-13T06:56:15;98699.13;;;20.33;51.96
30618;BME280;17384;51.214;9.202;2023-07-13T06:58:40;98696.59;;;20.57;49.82
30618;BME280;17384;51.214;9.202;2023-07-13T07:01:06;98688.72;;;20.79;50.02
30618;BME280;17384;51.214;9.202;2023-07-13T07:03:32;98687.25;;;21.02;48.40
30618;BME280;17384;51.214;9.202;2023-07-13T07:06:03;98698.47;;;20.67;49.62
30618;BME280;17384;51.214;9.202;2023-07-13T07:08:33;98690.97;;;20.77;50.33
30618;BME280;17384;51.214;9.202;2023-07-13T07:10:58;98690.91;;;20.87;49.74
30618;BME280;17384;51.214;9.202;2023-07-13T07:13:24;98678.84;;;20.78;49.81
30618;BME280;17384;51.214;9.202;2023-07-13T07:15:50;98703.94;;;20.77;49.39
30618;BME280;17384;51.214;9.202;2023-07-13T07:18:16;98694.03;;;20.71;49.93
30618;BME280;17384;51.214;9.202;2023-07-13T07:20:41;98686.91;;;20.65;50.69
30618;BME280;17384;51.214;9.202;2023-07-13T07:23:07;98690.28;;;21.01;48.22
30618;BME280;17384;51.214;9.202;2023-07-13T07:25:32;98696.56;;;20.62;48.24
30618;BME280;17384;51.214;9.202;2023-07-13T07:28:02;98689.84;;;20.09;48.88
30618;BME280;17384;51.214;9.202;2023-07-13T07:30:28;98707.97;;;20.25;50.60
30618;BME280;17384;51.214;9.202;2023-07-13T07:32:53;98704.66;;;20.92;49.42
30618;BME280;17384;51.214;9.202;2023-07-13T07:35:18;98706.28;;;21.38;47.94
30618;BME280;17384;51.214;9.202;2023-07-13T07:37:44;98702.50;;;21.62;47.91
30618;BME280;17384;51.214;9.202;2023-07-13T07:40:09;98704.78;;;21.84;47.00
30618;BME280;17384;51.214;9.202;2023-07-13T07:42:35;98697.19;;;22.24;45.89
30618;BME280;17384;51.214;9.202;2023-07-13T07:45:00;98700.63;;;22.40;45.30
30618;BME280;17384;51.214;9.202;2023-07-13T07:47:26;98695.66;;;22.60;43.84
30618;BME280;17384;51.214;9.202;2023-07-13T07:49:52;98696.44;;;22.85;43.86
30618;BME280;17384;51.214;9.202;2023-07-13T07:52:18;98711.78;;;22.53;44.95
30618;BME280;17384;51.214;9.202;2023-07-13T07:54:43;98706.13;;;22.63;43.42
30618;BME280;17384;51.214;9.202;2023-07-13T07:57:09;98714.69;;;22.86;44.59
30618;BME280;17384;51.214;9.202;2023-07-13T07:59:36;98715.84;;;23.22;42.68
30618;BME280;17384;51.214;9.202;2023-07-13T08:02:01;98699.75;;;23.06;42.46
30618;BME280;17384;51.214;9.202;2023-07-13T08:04:28;98702.59;;;23.19;43.23
30618;BME280;17384;51.214;9.202;2023-07-13T08:06:53;98702.84;;;23.37;42.13
30618;BME280;17384;51.214;9.202;2023-07-13T08:09:21;98700.72;;;22.29;43.21
30618;BME280;17384;51.214;9.202;2023-07-13T08:11:47;98703.59;;;22.43;43.88
30618;BME280;17384;51.214;9.202;2023-07-13T08:14:13;98709.31;;;22.71;42.91
30618;BME280;17384;51.214;9.202;2023-07-13T08:16:39;98702.81;;;22.61;42.96
30618;BME280;17384;51.214;9.202;2023-07-13T08:19:05;98707.38;;;22.95;43.23
30618;BME280;17384;51.214;9.202;2023-07-13T08:21:31;98712.72;;;23.43;42.44
30618;BME280;17384;51.214;9.202;2023-07-13T08:23:57;98708.41;;;23.37;43.05
30618;BME280;17384;51.214;9.202;2023-07-13T08:26:22;98711.81;;;22.96;41.95
30618;BME280;17384;51.214;9.202;2023-07-13T08:28:47;98711.06;;;22.67;41.74
30618;BME280;17384;51.214;9.202;2023-07-13T08:31:13;98707.72;;;22.70;42.30
30618;BME280;17384;51.214;9.202;2023-07-13T08:33:39;98709.53;;;22.55;43.17
30618;BME280;17384;51.214;9.202;2023-07-13T08:36:06;98706.34;;;22.91;43.11
30618;BME280;17384;51.214;9.202;2023-07-13T08:38:32;98703.81;;;23.65;42.28
30618;BME280;17384;51.214;9.202;2023-07-13T08:40:58;98714.84;;;24.29;41.47
30618;BME280;17384;51.214;9.202;2023-07-13T08:43:29;98715.06;;;24.33;41.01
30618;BME280;17384;51.214;9.202;2023-07-13T08:46:02;98711.88;;;23.93;40.92
30618;BME280;17384;51.214;9.202;2023-07-13T08:48:35;98719.16;;;23.38;42.73
30618;BME280;17384;51.214;9.202;2023-07-13T08:51:21;98714.59;;;23.66;41.42
30618;BME280;17384;51.214;9.202;2023-07-13T08:53:53;98703.97;;;23.54;40.74
30618;BME280;17384;51.214;9.202;2023-07-13T08:56:22;98710.41;;;23.50;41.44
30618;BME280;17384;51.214;9.202;2023-07-13T08:59:13;98707.69;;;23.12;40.71
30618;BME280;17384;51.214;9.202;2023-07-13T09:04:30;98700.91;;;22.38;43.13
30618;BME280;17384;51.214;9.202;2023-07-13T09:07:34;98708.16;;;23.33;44.01
30618;BME280;17384;51.214;9.202;2023-07-13T09:10:21;98707.84;;;23.72;39.41
30618;BME280;17384;51.214;9.202;2023-07-13T09:15:44;98707.56;;;23.87;39.50
30618;BME280;17384;51.214;9.202;2023-07-13T09:18:18;98714.63;;;24.26;39.52
30618;BME280;17384;51.214;9.202;2023-07-13T09:20:48;98708.53;;;24.24;38.92
30618;BME280;17384;51.214;9.202;2023-07-13T09:23:21;98704.56;;;24.44;38.65
30618;BME280;17384;51.214;9.202;2023-07-13T09:25:51;98709.53;;;24.14;37.54
30618;BME280;17384;51.214;9.202;2023-07-13T09:28:29;98714.94;;;24.38;38.20
30618;BME280;17384;51.214;9.202;2023-07-13T09:31:10;98708.88;;;24.50;37.72
30618;BME280;17384;51.214;9.202;2023-07-13T09:33:38;98711.09;;;24.20;37.73
30618;BME280;17384;51.214;9.202;2023-07-13T09:36:24;98711.16;;;23.88;39.08
30618;BME280;17384;51.214;9.202;2023-07-13T09:41:45;98721.22;;;24.30;38.96
30618;BME280;17384;51.214;9.202;2023-07-13T09:44:16;98703.84;;;24.38;38.00
30618;BME280;17384;51.214;9.202;2023-07-13T09:46:52;98721.00;;;24.40;38.38
30618;BME280;17384;51.214;9.202;2023-07-13T09:49:18;98714.03;;;24.29;37.08
30618;BME280;17384;51.214;9.202;2023-07-13T09:51:44;98719.84;;;24.82;37.64
30618;BME280;17384;51.214;9.202;2023-07-13T09:54:24;98719.69;;;25.15;37.56
30618;BME280;17384;51.214;9.202;2023-07-13T09:57:00;98720.78;;;25.63;36.82
30618;BME280;17384;51.214;9.202;2023-07-13T09:59:32;98716.00;;;24.92;37.28
30618;BME280;17384;51.214;9.202;2023-07-13T10:01:58;98723.13;;;24.84;37.32
30618;BME280;17384;51.214;9.202;2023-07-13T10:04:32;98717.69;;;25.29;36.95
30618;BME280;17384;51.214;9.202;2023-07-13T10:07:06;98728.16;;;24.82;37.99
30618;BME280;17384;51.214;9.202;2023-07-13T10:09:32;98725.50;;;24.63;38.63
30618;BME280;17384;51.214;9.202;2023-07-13T10:11:57;98721.00;;;24.26;38.86
30618;BME280;17384;51.214;9.202;2023-07-13T10:14:23;98717.06;;;23.81;39.48
30618;BME280;17384;51.214;9.202;2023-07-13T10:16:55;98717.56;;;24.16;39.45
30618;BME280;17384;51.214;9.202;2023-07-13T10:19:26;98726.25;;;24.55;38.98
30618;BME280;17384;51.214;9.202;2023-07-13T10:21:59;98718.22;;;24.54;38.56
30618;BME280;17384;51.214;9.202;2023-07-13T10:24:27;98717.00;;;24.33;39.01
30618;BME280;17384;51.214;9.202;2023-07-13T10:30:23;98725.81;;;23.88;40.56
30618;BME280;17384;51.214;9.202;2023-07-13T10:32:58;98722.91;;;23.47;40.95
30618;BME280;17384;51.214;9.202;2023-07-13T10:35:25;98729.13;;;23.58;40.25
30618;BME280;17384;51.214;9.202;2023-07-13T10:37:59;98731.81;;;23.63;41.15
30618;BME280;17384;51.214;9.202;2023-07-13T10:40:32;98731.41;;;24.16;40.99
30618;BME280;17384;51.214;9.202;2023-07-13T10:43:02;98730.03;;;24.32;39.55
30618;BME280;17384;51.214;9.202;2023-07-13T10:45:33;98732.22;;;24.03;39.75
30618;BME280;17384;51.214;9.202;2023-07-13T10:47:59;98744.78;;;23.81;40.81
30618;BME280;17384;51.214;9.202;2023-07-13T10:50:28;98744.69;;;23.16;42.08
30618;BME280;17384;51.214;9.202;2023-07-13T10:53:02;98738.34;;;22.97;42.01
30618;BME280;17384;51.214;9.202;2023-07-13T10:55:54;98740.66;;;23.46;41.10
30618;BME280;17384;51.214;9.202;2023-07-13T10:58:43;98743.19;;;24.81;39.93
30618;BME280;17384;51.214;9.202;2023-07-13T11:06:11;98744.91;;;25.41;38.34
30618;BME280;17384;51.214;9.202;2023-07-13T11:18:52;98738.97;;;24.98;37.55
30618;BME280;17384;51.214;9.202;2023-07-13T11:21:22;98729.03;;;24.55;37.32
30618;BME280;17384;51.214;9.202;2023-07-13T11:33:22;98744.91;;;23.76;40.20
30618;BME280;17384;51.214;9.202;2023-07-13T11:36:16;98741.75;;;23.64;40.80
30618;BME280;17384;51.214;9.202;2023-07-13T11:38:45;98733.91;;;23.52;39.35
30618;BME280;17384;51.214;9.202;2023-07-13T11:41:21;98744.19;;;23.14;39.75
30618;BME280;17384;51.214;9.202;2023-07-13T11:43:51;98735.06;;;22.95;39.26
30618;BME280;17384;51.214;9.202;2023-07-13T11:46:43;98741.78;;;23.08;39.81
30618;BME280;17384;51.214;9.202;2023-07-13T11:49:18;98748.44;;;23.44;39.92
30618;BME280;17384;51.214;9.202;2023-07-13T11:51:57;98734.66;;;23.58;38.83
30618;BME280;17384;51.214;9.202;2023-07-13T11:56:58;98740.50;;;24.49;36.89
30618;BME280;17384;51.214;9.202;2023-07-13T11:59:40;98744.22;;;24.31;36.71
30618;BME280;17384;51.214;9.202;2023-07-13T12:02:25;98744.84;;;24.09;38.48
30618;BME280;17384;51.214;9.202;2023-07-13T12:04:51;98733.63;;;23.86;38.75
30618;BME280;17384;51.214;9.202;2023-07-13T12:07:18;98727.00;;;23.69;39.01
30618;BME280;17384;51.214;9.202;2023-07-13T12:09:46;98738.63;;;23.71;39.33
30618;BME280;17384;51.214;9.202;2023-07-13T12:12:19;98743.94;;;23.67;38.36
30618;BME280;17384;51.214;9.202;2023-07-13T12:14:51;98745.00;;;23.85;37.91
30618;BME280;17384;51.214;9.202;2023-07-13T12:17:22;98746.63;;;24.05;38.12
30618;BME280;17384;51.214;9.202;2023-07-13T12:19:51;98761.38;;;24.87;38.27
30618;BME280;17384;51.214;9.202;2023-07-13T12:22:19;98760.25;;;25.38;35.79
30618;BME280;17384;51.214;9.202;2023-07-13T12:24:46;98751.09;;;25.02;34.96
30618;BME280;17384;51.214;9.202;2023-07-13T12:27:26;98748.56;;;24.04;36.88
30618;BME280;17384;51.214;9.202;2023-07-13T12:29:59;98752.25;;;24.00;37.53
30618;BME280;17384;51.214;9.202;2023-07-13T12:32:26;98765.22;;;23.85;37.72
30618;BME280;17384;51.214;9.202;2023-07-13T12:35:01;98752.31;;;23.94;38.39
30618;BME280;17384;51.214;9.202;2023-07-13T12:37:36;98756.00;;;23.90;38.31
30618;BME280;17384;51.214;9.202;2023-07-13T12:40:04;98763.44;;;24.08;36.63
30618;BME280;17384;51.214;9.202;2023-07-13T12:42:38;98759.06;;;24.21;38.12
30618;BME280;17384;51.214;9.202;2023-07-13T12:47:42;98776.66;;;24.30;36.46
30618;BME280;17384;51.214;9.202;2023-07-13T12:50:18;98774.31;;;23.72;36.39
30618;BME280;17384;51.214;9.202;2023-07-13T12:53:00;98772.38;;;23.35;37.58
30618;BME280;17384;51.214;9.202;2023-07-13T12:55:31;98775.91;;;23.22;37.42
30618;BME280;17384;51.214;9.202;2023-07-13T12:58:03;98784.81;;;23.19;37.33
30618;BME280;17384;51.214;9.202;2023-07-13T13:00:36;98774.00;;;22.99;38.95
30618;BME280;17384;51.214;9.202;2023-07-13T13:06:03;98762.94;;;22.75;37.94
30618;BME280;17384;51.214;9.202;2023-07-13T13:08:33;98772.59;;;22.77;38.34
30618;BME280;17384;51.214;9.202;2023-07-13T13:11:00;98775.66;;;23.37;38.99
30618;BME280;17384;51.214;9.202;2023-07-13T13:13:27;98759.28;;;23.41;37.15
30618;BME280;17384;51.214;9.202;2023-07-13T13:15:55;98768.88;;;23.67;39.16
30618;BME280;17384;51.214;9.202;2023-07-13T13:18:24;98768.56;;;23.69;37.95
30618;BME280;17384;51.214;9.202;2023-07-13T13:20:54;98769.00;;;23.76;38.87
30618;BME280;17384;51.214;9.202;2023-07-13T13:23:22;98766.00;;;24.05;37.34
30618;BME280;17384;51.214;9.202;2023-07-13T13:25:53;98768.25;;;23.70;38.44
30618;BME280;17384;51.214;9.202;2023-07-13T13:28:20;98757.00;;;23.80;38.04
30618;BME280;17384;51.214;9.202;2023-07-13T13:30:50;98763.69;;;23.60;38.69
30618;BME280;17384;51.214;9.202;2023-07-13T13:33:20;98767.91;;;23.58;38.61
30618;BME280;17384;51.214;9.202;2023-07-13T13:35:50;98771.44;;;24.56;37.80
30618;BME280;17384;51.214;9.202;2023-07-13T13:38:36;98767.13;;;24.77;36.51
30618;BME280;17384;51.214;9.202;2023-07-13T13:43:36;98772.31;;;24.24;36.14
30618;BME280;17384;51.214;9.202;2023-07-13T13:46:11;98775.34;;;24.09;37.16
30618;BME280;17384;51.214;9.202;2023-07-13T13:48:39;98769.72;;;23.81;35.80
30618;BME280;17384;51.214;9.202;2023-07-13T13:51:20;98773.69;;;23.94;38.35
30618;BME280;17384;51.214;9.202;2023-07-13T13:53:47;98776.22;;;23.90;37.55
30618;BME280;17384;51.214;9.202;2023-07-13T13:56:13;98785.09;;;23.55;37.71
30618;BME280;17384;51.214;9.202;2023-07-13T14:01:09;98781.28;;;23.51;37.94